Terminal Aerodrome Forecast
Issued by NWS

Home | Current Version | Previous Version | Text Only | Print | Product List | Glossary On
Versions: 1 2 3 4 5 6 7 8 9 10 11 12 13 14 15 16 17 18
171
FTUS43 KGRB 282324
TAFCWA
TAF
KCWA 282324Z 2900/2924 08005KT P6SM VCSH OVC040
     FM290700 VRB03KT P6SM OVC045
     FM291600 05007KT P6SM BKN060
     FM291700 05008KT P6SM SCT070
     FM292000 08007KT P6SM SCT080
      AMD LTD TO CLD VIS AND WIND 2903/2911=

USA.gov is the U.S. government's official web portal to all federal, state and local government web resources and services.